sensor_id;sensor_type;location;lat;lon;timestamp;temperature;humidity
64888;DHT22;51386;53.082;8.816;2022-12-07T00:01:05;7.60;85.60
64888;DHT22;51386;53.082;8.816;2022-12-07T00:03:33;7.50;86.20
64888;DHT22;51386;53.082;8.816;2022-12-07T00:06:01;7.60;85.60
64888;DHT22;51386;53.082;8.816;2022-12-07T00:08:30;7.50;85.40
64888;DHT22;51386;53.082;8.816;2022-12-07T00:11:02;7.50;85.50
64888;DHT22;51386;53.082;8.816;2022-12-07T00:13:30;7.40;85.20
64888;DHT22;51386;53.082;8.816;2022-12-07T00:16:00;7.40;85.20
64888;DHT22;51386;53.082;8.816;2022-12-07T00:18:28;7.40;85.10
64888;DHT22;51386;53.082;8.816;2022-12-07T00:20:59;7.40;85.10
64888;DHT22;51386;53.082;8.816;2022-12-07T00:23:27;7.30;85.00
64888;DHT22;51386;53.082;8.816;2022-12-07T00:25:54;7.30;85.00
64888;DHT22;51386;53.082;8.816;2022-12-07T00:28:22;7.30;85.00
64888;DHT22;51386;53.082;8.816;2022-12-07T00:30:49;7.30;85.00
64888;DHT22;51386;53.082;8.816;2022-12-07T00:33:16;7.20;84.90
64888;DHT22;51386;53.082;8.816;2022-12-07T00:35:43;7.20;84.80
64888;DHT22;51386;53.082;8.816;2022-12-07T00:38:10;7.20;84.90
64888;DHT22;51386;53.082;8.816;2022-12-07T00:40:37;7.20;85.00
64888;DHT22;51386;53.082;8.816;2022-12-07T00:43:04;7.20;85.10
64888;DHT22;51386;53.082;8.816;2022-12-07T00:45:32;7.20;85.20
64888;DHT22;51386;53.082;8.816;2022-12-07T00:47:59;7.10;84.90
64888;DHT22;51386;53.082;8.816;2022-12-07T00:50:26;7.10;85.10
64888;DHT22;51386;53.082;8.816;2022-12-07T00:52:54;7.10;85.10
64888;DHT22;51386;53.082;8.816;2022-12-07T00:55:21;7.20;85.30
64888;DHT22;51386;53.082;8.816;2022-12-07T00:57:48;7.20;85.20
64888;DHT22;51386;53.082;8.816;2022-12-07T01:00:15;7.20;85.10
64888;DHT22;51386;53.082;8.816;2022-12-07T01:02:44;7.20;84.80
64888;DHT22;51386;53.082;8.816;2022-12-07T01:05:11;7.20;84.60
64888;DHT22;51386;53.082;8.816;2022-12-07T01:07:38;7.10;84.50
64888;DHT22;51386;53.082;8.816;2022-12-07T01:10:06;7.10;84.40
64888;DHT22;51386;53.082;8.816;2022-12-07T01:12:33;7.10;84.40
64888;DHT22;51386;53.082;8.816;2022-12-07T01:15:01;7.10;84.40
64888;DHT22;51386;53.082;8.816;2022-12-07T01:17:28;7.10;84.20
64888;DHT22;51386;53.082;8.816;2022-12-07T01:19:57;7.10;84.20
64888;DHT22;51386;53.082;8.816;2022-12-07T01:22:24;7.10;84.00
64888;DHT22;51386;53.082;8.816;2022-12-07T01:24:51;7.10;84.00
64888;DHT22;51386;53.082;8.816;2022-12-07T01:27:18;7.00;84.00
64888;DHT22;51386;53.082;8.816;2022-12-07T01:29:45;7.10;84.00
64888;DHT22;51386;53.082;8.816;2022-12-07T01:32:12;7.10;83.90
64888;DHT22;51386;53.082;8.816;2022-12-07T01:34:39;7.00;83.70
64888;DHT22;51386;53.082;8.816;2022-12-07T01:37:08;7.10;83.50
64888;DHT22;51386;53.082;8.816;2022-12-07T01:39:34;7.10;83.40
64888;DHT22;51386;53.082;8.816;2022-12-07T01:42:02;7.10;83.20
64888;DHT22;51386;53.082;8.816;2022-12-07T01:44:29;7.10;83.10
64888;DHT22;51386;53.082;8.816;2022-12-07T01:47:00;7.10;82.90
64888;DHT22;51386;53.082;8.816;2022-12-07T01:49:31;7.10;82.80
64888;DHT22;51386;53.082;8.816;2022-12-07T01:52:10;7.10;82.70
64888;DHT22;51386;53.082;8.816;2022-12-07T01:54:41;7.10;82.50
64888;DHT22;51386;53.082;8.816;2022-12-07T01:57:10;7.10;82.30
64888;DHT22;51386;53.082;8.816;2022-12-07T01:59:39;7.10;82.20
64888;DHT22;51386;53.082;8.816;2022-12-07T02:02:12;7.10;82.40
64888;DHT22;51386;53.082;8.816;2022-12-07T02:04:46;7.10;82.20
64888;DHT22;51386;53.082;8.816;2022-12-07T02:07:14;7.10;82.10
64888;DHT22;51386;53.082;8.816;2022-12-07T02:09:42;7.10;82.10
64888;DHT22;51386;53.082;8.816;2022-12-07T02:12:09;7.10;82.00
64888;DHT22;51386;53.082;8.816;2022-12-07T02:14:36;7.00;81.80
64888;DHT22;51386;53.082;8.816;2022-12-07T02:17:09;7.00;81.90
64888;DHT22;51386;53.082;8.816;2022-12-07T02:20:11;7.00;82.60
64888;DHT22;51386;53.082;8.816;2022-12-07T02:23:11;7.00;82.10
64888;DHT22;51386;53.082;8.816;2022-12-07T02:26:02;7.00;82.10
64888;DHT22;51386;53.082;8.816;2022-12-07T02:29:10;6.90;82.00
64888;DHT22;51386;53.082;8.816;2022-12-07T02:31:44;6.90;82.10
64888;DHT22;51386;53.082;8.816;2022-12-07T02:34:21;6.90;82.20
64888;DHT22;51386;53.082;8.816;2022-12-07T02:37:00;6.80;82.10
64888;DHT22;51386;53.082;8.816;2022-12-07T02:39:40;6.80;82.30
64888;DHT22;51386;53.082;8.816;2022-12-07T02:42:16;6.80;82.40
64888;DHT22;51386;53.082;8.816;2022-12-07T02:44:50;6.80;82.40
64888;DHT22;51386;53.082;8.816;2022-12-07T02:47:20;6.80;82.40
64888;DHT22;51386;53.082;8.816;2022-12-07T02:49:51;6.70;82.40
64888;DHT22;51386;53.082;8.816;2022-12-07T02:52:19;6.70;82.50
64888;DHT22;51386;53.082;8.816;2022-12-07T02:54:46;6.70;82.50
64888;DHT22;51386;53.082;8.816;2022-12-07T02:57:25;6.70;82.50
64888;DHT22;51386;53.082;8.816;2022-12-07T03:00:07;6.70;82.70
64888;DHT22;51386;53.082;8.816;2022-12-07T03:02:41;6.70;82.70
64888;DHT22;51386;53.082;8.816;2022-12-07T03:05:45;6.70;82.70
64888;DHT22;51386;53.082;8.816;2022-12-07T03:08:28;6.70;82.70
64888;DHT22;51386;53.082;8.816;2022-12-07T03:11:04;6.70;82.90
64888;DHT22;51386;53.082;8.816;2022-12-07T03:13:39;6.70;82.70
64888;DHT22;51386;53.082;8.816;2022-12-07T03:16:15;6.80;82.60
64888;DHT22;51386;53.082;8.816;2022-12-07T03:18:49;6.80;82.40
64888;DHT22;51386;53.082;8.816;2022-12-07T03:21:22;6.80;82.50
64888;DHT22;51386;53.082;8.816;2022-12-07T03:23:55;6.80;82.40
64888;DHT22;51386;53.082;8.816;2022-12-07T03:26:26;6.90;82.40
64888;DHT22;51386;53.082;8.816;2022-12-07T03:29:03;6.90;82.40
64888;DHT22;51386;53.082;8.816;2022-12-07T03:31:38;6.90;82.20
64888;DHT22;51386;53.082;8.816;2022-12-07T03:34:13;6.90;82.10
64888;DHT22;51386;53.082;8.816;2022-12-07T03:36:46;6.90;82.10
64888;DHT22;51386;53.082;8.816;2022-12-07T03:39:19;6.90;82.20
64888;DHT22;51386;53.082;8.816;2022-12-07T03:41:51;6.90;82.00
64888;DHT22;51386;53.082;8.816;2022-12-07T03:44:20;7.00;82.10
64888;DHT22;51386;53.082;8.816;2022-12-07T03:46:54;6.90;81.80
64888;DHT22;51386;53.082;8.816;2022-12-07T03:49:32;7.00;81.90
64888;DHT22;51386;53.082;8.816;2022-12-07T03:52:12;7.00;81.90
64888;DHT22;51386;53.082;8.816;2022-12-07T03:54:49;7.00;82.00
64888;DHT22;51386;53.082;8.816;2022-12-07T03:57:21;7.00;82.00
64888;DHT22;51386;53.082;8.816;2022-12-07T03:59:51;7.10;82.20
64888;DHT22;51386;53.082;8.816;2022-12-07T04:02:22;7.10;82.40
64888;DHT22;51386;53.082;8.816;2022-12-07T04:04:52;7.10;82.50
64888;DHT22;51386;53.082;8.816;2022-12-07T04:07:19;7.10;82.60
64888;DHT22;51386;53.082;8.816;2022-12-07T04:09:46;7.10;82.60
64888;DHT22;51386;53.082;8.816;2022-12-07T04:12:13;7.10;82.50
64888;DHT22;51386;53.082;8.816;2022-12-07T04:14:40;7.10;82.20
64888;DHT22;51386;53.082;8.816;2022-12-07T04:17:08;7.10;82.20
64888;DHT22;51386;53.082;8.816;2022-12-07T04:19:37;7.00;82.20
64888;DHT22;51386;53.082;8.816;2022-12-07T04:22:05;7.00;82.30
64888;DHT22;51386;53.082;8.816;2022-12-07T04:24:33;7.00;82.50
64888;DHT22;51386;53.082;8.816;2022-12-07T04:27:01;7.00;82.60
64888;DHT22;51386;53.082;8.816;2022-12-07T04:29:28;6.90;82.70
64888;DHT22;51386;53.082;8.816;2022-12-07T04:31:55;6.90;82.80
64888;DHT22;51386;53.082;8.816;2022-12-07T04:34:22;6.90;83.10
64888;DHT22;51386;53.082;8.816;2022-12-07T04:36:50;6.90;83.30
64888;DHT22;51386;53.082;8.816;2022-12-07T04:39:21;6.90;83.30
64888;DHT22;51386;53.082;8.816;2022-12-07T04:41:49;6.90;83.30
64888;DHT22;51386;53.082;8.816;2022-12-07T04:44:17;6.80;83.20
64888;DHT22;51386;53.082;8.816;2022-12-07T04:46:47;6.90;83.30
64888;DHT22;51386;53.082;8.816;2022-12-07T04:49:15;6.90;83.40
64888;DHT22;51386;53.082;8.816;2022-12-07T04:51:43;6.80;83.30
64888;DHT22;51386;53.082;8.816;2022-12-07T04:54:12;6.90;83.40
64888;DHT22;51386;53.082;8.816;2022-12-07T04:56:39;6.90;83.40
64888;DHT22;51386;53.082;8.816;2022-12-07T04:59:07;6.80;83.30
64888;DHT22;51386;53.082;8.816;2022-12-07T05:01:34;6.80;83.30
64888;DHT22;51386;53.082;8.816;2022-12-07T05:04:01;6.80;83.30
64888;DHT22;51386;53.082;8.816;2022-12-07T05:06:28;6.80;83.30
64888;DHT22;51386;53.082;8.816;2022-12-07T05:08:55;6.80;83.30
64888;DHT22;51386;53.082;8.816;2022-12-07T05:11:24;6.80;83.20
64888;DHT22;51386;53.082;8.816;2022-12-07T05:14:09;6.80;83.00
64888;DHT22;51386;53.082;8.816;2022-12-07T05:16:38;6.80;82.90
64888;DHT22;51386;53.082;8.816;2022-12-07T05:19:06;6.80;83.00
64888;DHT22;51386;53.082;8.816;2022-12-07T05:21:34;6.80;82.80
64888;DHT22;51386;53.082;8.816;2022-12-07T05:24:03;6.80;82.90
64888;DHT22;51386;53.082;8.816;2022-12-07T05:26:32;6.80;82.70
64888;DHT22;51386;53.082;8.816;2022-12-07T05:28:59;6.70;82.50
64888;DHT22;51386;53.082;8.816;2022-12-07T05:31:27;6.70;82.50
64888;DHT22;51386;53.082;8.816;2022-12-07T05:33:54;6.70;82.50
64888;DHT22;51386;53.082;8.816;2022-12-07T05:36:23;6.70;82.60
64888;DHT22;51386;53.082;8.816;2022-12-07T05:38:50;6.60;82.60
64888;DHT22;51386;53.082;8.816;2022-12-07T05:41:18;6.60;82.70
64888;DHT22;51386;53.082;8.816;2022-12-07T05:44:05;6.60;82.70
64888;DHT22;51386;53.082;8.816;2022-12-07T05:46:33;6.60;82.70
64888;DHT22;51386;53.082;8.816;2022-12-07T05:49:00;6.60;82.70
64888;DHT22;51386;53.082;8.816;2022-12-07T05:51:28;6.50;82.60
64888;DHT22;51386;53.082;8.816;2022-12-07T05:53:55;6.50;82.70
64888;DHT22;51386;53.082;8.816;2022-12-07T05:56:22;6.50;82.70
64888;DHT22;51386;53.082;8.816;2022-12-07T05:58:49;6.50;82.80
64888;DHT22;51386;53.082;8.816;2022-12-07T06:01:36;6.50;82.80
64888;DHT22;51386;53.082;8.816;2022-12-07T06:04:03;6.50;82.90
64888;DHT22;51386;53.082;8.816;2022-12-07T06:06:30;6.50;82.80
64888;DHT22;51386;53.082;8.816;2022-12-07T06:08:58;6.50;82.80
64888;DHT22;51386;53.082;8.816;2022-12-07T06:11:25;6.50;83.00
64888;DHT22;51386;53.082;8.816;2022-12-07T06:14:10;6.50;83.40
64888;DHT22;51386;53.082;8.816;2022-12-07T06:16:39;6.50;83.70
64888;DHT22;51386;53.082;8.816;2022-12-07T06:19:06;6.50;83.50
64888;DHT22;51386;53.082;8.816;2022-12-07T06:21:33;6.50;83.40
64888;DHT22;51386;53.082;8.816;2022-12-07T06:24:01;6.60;83.80
64888;DHT22;51386;53.082;8.816;2022-12-07T06:26:28;6.60;83.40
64888;DHT22;51386;53.082;8.816;2022-12-07T06:28:55;6.60;83.30
64888;DHT22;51386;53.082;8.816;2022-12-07T06:31:22;6.70;83.40
64888;DHT22;51386;53.082;8.816;2022-12-07T06:33:51;6.70;83.70
64888;DHT22;51386;53.082;8.816;2022-12-07T06:36:18;6.80;84.00
64888;DHT22;51386;53.082;8.816;2022-12-07T06:38:52;6.90;83.60
64888;DHT22;51386;53.082;8.816;2022-12-07T06:41:21;6.90;82.60
64888;DHT22;51386;53.082;8.816;2022-12-07T06:43:48;7.00;82.20
64888;DHT22;51386;53.082;8.816;2022-12-07T06:46:22;7.00;81.70
64888;DHT22;51386;53.082;8.816;2022-12-07T06:48:51;7.00;81.40
64888;DHT22;51386;53.082;8.816;2022-12-07T06:51:18;7.00;81.40
64888;DHT22;51386;53.082;8.816;2022-12-07T06:53:45;7.00;81.30
64888;DHT22;51386;53.082;8.816;2022-12-07T06:56:12;7.00;81.30
64888;DHT22;51386;53.082;8.816;2022-12-07T06:58:40;6.90;81.30
64888;DHT22;51386;53.082;8.816;2022-12-07T07:01:10;6.90;81.30
64888;DHT22;51386;53.082;8.816;2022-12-07T07:03:37;6.90;81.50
64888;DHT22;51386;53.082;8.816;2022-12-07T07:06:07;6.80;81.50
64888;DHT22;51386;53.082;8.816;2022-12-07T07:08:35;6.80;81.60
64888;DHT22;51386;53.082;8.816;2022-12-07T07:11:02;6.80;81.80
64888;DHT22;51386;53.082;8.816;2022-12-07T07:13:30;6.80;82.00
64888;DHT22;51386;53.082;8.816;2022-12-07T07:15:57;6.80;82.30
64888;DHT22;51386;53.082;8.816;2022-12-07T07:18:25;6.70;82.40
64888;DHT22;51386;53.082;8.816;2022-12-07T07:20:53;6.70;82.50
64888;DHT22;51386;53.082;8.816;2022-12-07T07:23:22;6.70;82.50
64888;DHT22;51386;53.082;8.816;2022-12-07T07:25:49;6.70;82.60
64888;DHT22;51386;53.082;8.816;2022-12-07T07:28:16;6.70;82.70
64888;DHT22;51386;53.082;8.816;2022-12-07T07:30:43;6.70;82.60
64888;DHT22;51386;53.082;8.816;2022-12-07T07:33:11;6.70;82.60
64888;DHT22;51386;53.082;8.816;2022-12-07T07:35:38;6.70;82.70
64888;DHT22;51386;53.082;8.816;2022-12-07T07:38:06;6.70;82.60
64888;DHT22;51386;53.082;8.816;2022-12-07T07:40:35;6.70;82.60
64888;DHT22;51386;53.082;8.816;2022-12-07T07:43:02;6.70;82.70
64888;DHT22;51386;53.082;8.816;2022-12-07T07:45:29;6.60;82.60
64888;DHT22;51386;53.082;8.816;2022-12-07T07:47:56;6.60;82.70
64888;DHT22;51386;53.082;8.816;2022-12-07T07:50:24;6.60;82.80
64888;DHT22;51386;53.082;8.816;2022-12-07T07:52:51;6.60;82.90
64888;DHT22;51386;53.082;8.816;2022-12-07T07:55:18;6.50;82.80
64888;DHT22;51386;53.082;8.816;2022-12-07T07:57:47;6.60;83.00
64888;DHT22;51386;53.082;8.816;2022-12-07T08:00:21;6.60;82.90
64888;DHT22;51386;53.082;8.816;2022-12-07T08:02:49;6.60;83.20
64888;DHT22;51386;53.082;8.816;2022-12-07T08:05:17;6.70;83.40
64888;DHT22;51386;53.082;8.816;2022-12-07T08:07:44;6.70;82.80
64888;DHT22;51386;53.082;8.816;2022-12-07T08:10:13;6.70;82.50
64888;DHT22;51386;53.082;8.816;2022-12-07T08:12:42;6.70;82.50
64888;DHT22;51386;53.082;8.816;2022-12-07T08:15:30;6.70;82.50
64888;DHT22;51386;53.082;8.816;2022-12-07T08:17:58;6.80;82.50
64888;DHT22;51386;53.082;8.816;2022-12-07T08:20:26;6.80;82.20
64888;DHT22;51386;53.082;8.816;2022-12-07T08:22:53;6.80;82.10
64888;DHT22;51386;53.082;8.816;2022-12-07T08:25:20;6.70;82.10
64888;DHT22;51386;53.082;8.816;2022-12-07T08:27:49;6.80;81.80
64888;DHT22;51386;53.082;8.816;2022-12-07T08:30:17;6.80;81.80
64888;DHT22;51386;53.082;8.816;2022-12-07T08:32:47;6.80;81.70
64888;DHT22;51386;53.082;8.816;2022-12-07T08:35:15;6.80;81.60
64888;DHT22;51386;53.082;8.816;2022-12-07T08:37:42;6.80;81.50
64888;DHT22;51386;53.082;8.816;2022-12-07T08:40:11;6.80;81.50
64888;DHT22;51386;53.082;8.816;2022-12-07T08:42:42;6.80;81.50
64888;DHT22;51386;53.082;8.816;2022-12-07T08:45:11;6.80;81.70
64888;DHT22;51386;53.082;8.816;2022-12-07T08:47:43;6.80;81.70
64888;DHT22;51386;53.082;8.816;2022-12-07T08:50:15;6.80;81.70
64888;DHT22;51386;53.082;8.816;2022-12-07T08:52:43;6.80;81.90
64888;DHT22;51386;53.082;8.816;2022-12-07T08:55:11;6.90;82.00
64888;DHT22;51386;53.082;8.816;2022-12-07T08:57:39;6.90;82.00
64888;DHT22;51386;53.082;8.816;2022-12-07T09:00:08;6.90;82.00
64888;DHT22;51386;53.082;8.816;2022-12-07T09:02:36;6.90;82.20
64888;DHT22;51386;53.082;8.816;2022-12-07T09:05:05;6.90;82.00
64888;DHT22;51386;53.082;8.816;2022-12-07T09:07:41;7.00;81.90
64888;DHT22;51386;53.082;8.816;2022-12-07T09:10:10;7.00;81.60
64888;DHT22;51386;53.082;8.816;2022-12-07T09:12:38;7.00;81.20
64888;DHT22;51386;53.082;8.816;2022-12-07T09:15:05;7.00;81.00
64888;DHT22;51386;53.082;8.816;2022-12-07T09:17:34;7.10;81.10
64888;DHT22;51386;53.082;8.816;2022-12-07T09:20:05;7.10;81.00
64888;DHT22;51386;53.082;8.816;2022-12-07T09:22:33;7.10;80.60
64888;DHT22;51386;53.082;8.816;2022-12-07T09:25:01;7.20;80.80
64888;DHT22;51386;53.082;8.816;2022-12-07T09:27:30;7.20;80.90
64888;DHT22;51386;53.082;8.816;2022-12-07T09:29:57;7.20;80.70
64888;DHT22;51386;53.082;8.816;2022-12-07T09:32:24;7.30;80.60
64888;DHT22;51386;53.082;8.816;2022-12-07T09:34:51;7.30;80.60
64888;DHT22;51386;53.082;8.816;2022-12-07T09:37:20;7.30;80.30
64888;DHT22;51386;53.082;8.816;2022-12-07T09:39:47;7.40;80.60
64888;DHT22;51386;53.082;8.816;2022-12-07T09:42:29;7.40;80.50
64888;DHT22;51386;53.082;8.816;2022-12-07T09:45:01;7.40;80.20
64888;DHT22;51386;53.082;8.816;2022-12-07T09:47:33;7.40;80.40
64888;DHT22;51386;53.082;8.816;2022-12-07T09:50:05;7.40;80.50
64888;DHT22;51386;53.082;8.816;2022-12-07T09:52:40;7.50;80.50
64888;DHT22;51386;53.082;8.816;2022-12-07T09:55:11;7.50;80.30
64888;DHT22;51386;53.082;8.816;2022-12-07T09:57:39;7.60;80.20
64888;DHT22;51386;53.082;8.816;2022-12-07T10:00:12;7.60;80.00
64888;DHT22;51386;53.082;8.816;2022-12-07T10:02:43;7.60;79.90
64888;DHT22;51386;53.082;8.816;2022-12-07T10:05:14;7.60;79.80
64888;DHT22;51386;53.082;8.816;2022-12-07T10:07:51;7.60;79.70
64888;DHT22;51386;53.082;8.816;2022-12-07T10:10:23;7.60;79.70
64888;DHT22;51386;53.082;8.816;2022-12-07T10:12:57;7.60;79.40
64888;DHT22;51386;53.082;8.816;2022-12-07T10:15:41;7.70;79.40
64888;DHT22;51386;53.082;8.816;2022-12-07T10:18:27;7.70;79.50
64888;DHT22;51386;53.082;8.816;2022-12-07T10:21:02;7.70;79.50
64888;DHT22;51386;53.082;8.816;2022-12-07T10:23:40;7.70;79.10
64888;DHT22;51386;53.082;8.816;2022-12-07T10:26:26;7.80;78.70
64888;DHT22;51386;53.082;8.816;2022-12-07T10:28:56;7.80;78.40
64888;DHT22;51386;53.082;8.816;2022-12-07T10:31:26;7.80;78.30
64888;DHT22;51386;53.082;8.816;2022-12-07T10:33:55;7.80;78.20
64888;DHT22;51386;53.082;8.816;2022-12-07T10:36:25;7.80;78.20
64888;DHT22;51386;53.082;8.816;2022-12-07T10:39:00;7.80;78.00
64888;DHT22;51386;53.082;8.816;2022-12-07T10:41:30;7.90;77.90
64888;DHT22;51386;53.082;8.816;2022-12-07T10:43:57;7.90;77.90
64888;DHT22;51386;53.082;8.816;2022-12-07T10:46:43;7.90;77.70
64888;DHT22;51386;53.082;8.816;2022-12-07T10:52:58;8.00;77.60
64888;DHT22;51386;53.082;8.816;2022-12-07T10:55:55;8.00;76.70
64888;DHT22;51386;53.082;8.816;2022-12-07T10:58:48;8.00;76.80
64888;DHT22;51386;53.082;8.816;2022-12-07T11:01:27;8.00;76.90
64888;DHT22;51386;53.082;8.816;2022-12-07T11:04:24;8.00;76.70
64888;DHT22;51386;53.082;8.816;2022-12-07T11:07:04;8.10;77.10
64888;DHT22;51386;53.082;8.816;2022-12-07T11:09:58;8.00;76.80
64888;DHT22;51386;53.082;8.816;2022-12-07T11:12:47;8.00;76.80
64888;DHT22;51386;53.082;8.816;2022-12-07T11:15:25;8.10;77.10
64888;DHT22;51386;53.082;8.816;2022-12-07T11:18:03;8.10;76.90
64888;DHT22;51386;53.082;8.816;2022-12-07T11:20:41;8.10;77.00
64888;DHT22;51386;53.082;8.816;2022-12-07T11:23:27;8.10;77.30
64888;DHT22;51386;53.082;8.816;2022-12-07T11:26:11;8.10;77.70
64888;DHT22;51386;53.082;8.816;2022-12-07T11:29:11;8.10;77.30
64888;DHT22;51386;53.082;8.816;2022-12-07T11:31:58;8.00;76.40
64888;DHT22;51386;53.082;8.816;2022-12-07T11:34:38;8.00;76.40
64888;DHT22;51386;53.082;8.816;2022-12-07T11:37:16;8.00;76.30
64888;DHT22;51386;53.082;8.816;2022-12-07T11:39:50;8.00;76.70
64888;DHT22;51386;53.082;8.816;2022-12-07T11:42:22;7.90;77.10
64888;DHT22;51386;53.082;8.816;2022-12-07T11:44:56;8.00;77.30
64888;DHT22;51386;53.082;8.816;2022-12-07T11:47:30;8.00;77.60
64888;DHT22;51386;53.082;8.816;2022-12-07T11:50:16;8.00;77.60
64888;DHT22;51386;53.082;8.816;2022-12-07T11:52:54;8.10;77.30
64888;DHT22;51386;53.082;8.816;2022-12-07T11:55:29;8.20;77.40
64888;DHT22;51386;53.082;8.816;2022-12-07T11:58:17;8.20;77.40
64888;DHT22;51386;53.082;8.816;2022-12-07T12:01:04;8.20;77.30
64888;DHT22;51386;53.082;8.816;2022-12-07T12:03:40;8.30;78.20
64888;DHT22;51386;53.082;8.816;2022-12-07T12:06:19;8.30;77.50
64888;DHT22;51386;53.082;8.816;2022-12-07T12:08:50;8.50;77.70
64888;DHT22;51386;53.082;8.816;2022-12-07T12:12:07;8.50;77.70
64888;DHT22;51386;53.082;8.816;2022-12-07T12:15:29;8.60;77.40
64888;DHT22;51386;53.082;8.816;2022-12-07T12:18:22;8.70;76.80
64888;DHT22;51386;53.082;8.816;2022-12-07T12:21:02;8.80;76.90
64888;DHT22;51386;53.082;8.816;2022-12-07T12:23:38;8.80;76.70
64888;DHT22;51386;53.082;8.816;2022-12-07T12:26:16;8.90;76.70
64888;DHT22;51386;53.082;8.816;2022-12-07T12:28:53;9.00;76.20
64888;DHT22;51386;53.082;8.816;2022-12-07T12:31:36;9.00;75.60
64888;DHT22;51386;53.082;8.816;2022-12-07T12:34:32;9.00;75.30
64888;DHT22;51386;53.082;8.816;2022-12-07T12:40:42;9.10;74.50
64888;DHT22;51386;53.082;8.816;2022-12-07T12:43:42;9.10;74.50
64888;DHT22;51386;53.082;8.816;2022-12-07T12:49:55;9.10;75.60
64888;DHT22;51386;53.082;8.816;2022-12-07T12:59:21;8.60;75.50
64888;DHT22;51386;53.082;8.816;2022-12-07T13:01:51;8.50;75.50
64888;DHT22;51386;53.082;8.816;2022-12-07T13:08:01;8.40;76.90
64888;DHT22;51386;53.082;8.816;2022-12-07T13:10:36;8.30;77.70
64888;DHT22;51386;53.082;8.816;2022-12-07T13:13:32;8.30;77.80
64888;DHT22;51386;53.082;8.816;2022-12-07T13:19:55;8.20;77.90
64888;DHT22;51386;53.082;8.816;2022-12-07T13:22:54;8.20;78.40
64888;DHT22;51386;53.082;8.816;2022-12-07T13:25:33;8.20;79.20
64888;DHT22;51386;53.082;8.816;2022-12-07T13:28:15;8.30;79.50
64888;DHT22;51386;53.082;8.816;2022-12-07T13:31:08;8.30;79.40
64888;DHT22;51386;53.082;8.816;2022-12-07T13:33:41;8.40;79.70
64888;DHT22;51386;53.082;8.816;2022-12-07T13:36:20;8.40;79.60
64888;DHT22;51386;53.082;8.816;2022-12-07T13:38:52;8.50;79.70
64888;DHT22;51386;53.082;8.816;2022-12-07T13:41:24;8.50;79.10
64888;DHT22;51386;53.082;8.816;2022-12-07T13:44:00;8.50;78.90
64888;DHT22;51386;53.082;8.816;2022-12-07T13:46:46;8.50;78.60
64888;DHT22;51386;53.082;8.816;2022-12-07T13:49:21;8.40;78.70
64888;DHT22;51386;53.082;8.816;2022-12-07T13:51:52;8.50;79.00
64888;DHT22;51386;53.082;8.816;2022-12-07T13:54:20;8.40;78.80
64888;DHT22;51386;53.082;8.816;2022-12-07T13:56:50;8.40;79.10
64888;DHT22;51386;53.082;8.816;2022-12-07T13:59:20;8.40;78.90
64888;DHT22;51386;53.082;8.816;2022-12-07T14:01:51;8.40;79.20
64888;DHT22;51386;53.082;8.816;2022-12-07T14:04:30;8.40;79.00
64888;DHT22;51386;53.082;8.816;2022-12-07T14:07:18;8.40;79.10
64888;DHT22;51386;53.082;8.816;2022-12-07T14:09:54;8.40;78.80
64888;DHT22;51386;53.082;8.816;2022-12-07T14:12:24;8.40;79.00
64888;DHT22;51386;53.082;8.816;2022-12-07T14:14:53;8.40;78.60
64888;DHT22;51386;53.082;8.816;2022-12-07T14:17:22;8.40;78.40
64888;DHT22;51386;53.082;8.816;2022-12-07T14:19:52;8.40;77.60
64888;DHT22;51386;53.082;8.816;2022-12-07T14:22:31;8.40;77.60
64888;DHT22;51386;53.082;8.816;2022-12-07T14:25:23;8.30;77.30
64888;DHT22;51386;53.082;8.816;2022-12-07T14:27:54;8.30;77.10
64888;DHT22;51386;53.082;8.816;2022-12-07T14:30:25;8.20;77.20
64888;DHT22;51386;53.082;8.816;2022-12-07T14:32:57;8.20;77.20
64888;DHT22;51386;53.082;8.816;2022-12-07T14:35:26;8.10;77.30
64888;DHT22;51386;53.082;8.816;2022-12-07T14:37:55;8.00;77.50
64888;DHT22;51386;53.082;8.816;2022-12-07T14:40:24;8.00;77.80
64888;DHT22;51386;53.082;8.816;2022-12-07T14:42:57;7.90;78.20
64888;DHT22;51386;53.082;8.816;2022-12-07T14:45:28;7.90;78.70
64888;DHT22;51386;53.082;8.816;2022-12-07T14:47:56;7.90;79.20
64888;DHT22;51386;53.082;8.816;2022-12-07T14:50:47;7.90;78.90
64888;DHT22;51386;53.082;8.816;2022-12-07T14:53:40;7.90;79.10
64888;DHT22;51386;53.082;8.816;2022-12-07T14:56:15;7.90;79.70
64888;DHT22;51386;53.082;8.816;2022-12-07T14:58:42;7.90;79.90
64888;DHT22;51386;53.082;8.816;2022-12-07T15:01:09;7.90;79.90
64888;DHT22;51386;53.082;8.816;2022-12-07T15:03:36;7.90;79.20
64888;DHT22;51386;53.082;8.816;2022-12-07T15:06:05;7.80;78.60
64888;DHT22;51386;53.082;8.816;2022-12-07T15:08:33;7.80;78.50
64888;DHT22;51386;53.082;8.816;2022-12-07T15:11:02;7.80;79.20
64888;DHT22;51386;53.082;8.816;2022-12-07T15:13:29;7.80;78.80
64888;DHT22;51386;53.082;8.816;2022-12-07T15:16:19;7.70;78.00
64888;DHT22;51386;53.082;8.816;2022-12-07T15:18:48;7.70;77.90
64888;DHT22;51386;53.082;8.816;2022-12-07T15:21:35;7.60;77.70
64888;DHT22;51386;53.082;8.816;2022-12-07T15:24:03;7.60;78.60
64888;DHT22;51386;53.082;8.816;2022-12-07T15:26:32;7.60;78.00
64888;DHT22;51386;53.082;8.816;2022-12-07T15:28:59;7.50;78.00
64888;DHT22;51386;53.082;8.816;2022-12-07T15:31:26;7.50;78.10
64888;DHT22;51386;53.082;8.816;2022-12-07T15:34:13;7.40;78.10
64888;DHT22;51386;53.082;8.816;2022-12-07T15:36:40;7.40;78.60
64888;DHT22;51386;53.082;8.816;2022-12-07T15:39:08;7.30;78.80
64888;DHT22;51386;53.082;8.816;2022-12-07T15:41:42;7.30;79.10
64888;DHT22;51386;53.082;8.816;2022-12-07T15:44:11;7.20;79.30
64888;DHT22;51386;53.082;8.816;2022-12-07T15:46:58;7.10;79.50
64888;DHT22;51386;53.082;8.816;2022-12-07T15:49:27;7.10;79.20
64888;DHT22;51386;53.082;8.816;2022-12-07T15:51:55;7.10;78.80
64888;DHT22;51386;53.082;8.816;2022-12-07T15:54:23;7.00;78.70
64888;DHT22;51386;53.082;8.816;2022-12-07T15:56:53;7.00;78.70
64888;DHT22;51386;53.082;8.816;2022-12-07T15:59:21;7.00;78.60
64888;DHT22;51386;53.082;8.816;2022-12-07T16:01:49;6.90;78.40
64888;DHT22;51386;53.082;8.816;2022-12-07T16:04:16;6.80;78.50
64888;DHT22;51386;53.082;8.816;2022-12-07T16:06:43;6.80;78.50
64888;DHT22;51386;53.082;8.816;2022-12-07T16:09:11;6.70;78.50
64888;DHT22;51386;53.082;8.816;2022-12-07T16:11:38;6.60;78.70
64888;DHT22;51386;53.082;8.816;2022-12-07T16:14:07;6.60;78.90
64888;DHT22;51386;53.082;8.816;2022-12-07T16:16:34;6.50;79.20
64888;DHT22;51386;53.082;8.816;2022-12-07T16:19:01;6.50;79.70
64888;DHT22;51386;53.082;8.816;2022-12-07T16:21:29;6.50;80.60
64888;DHT22;51386;53.082;8.816;2022-12-07T16:23:57;6.50;81.50
64888;DHT22;51386;53.082;8.816;2022-12-07T16:26:25;6.50;80.90
64888;DHT22;51386;53.082;8.816;2022-12-07T16:28:53;6.50;80.10
64888;DHT22;51386;53.082;8.816;2022-12-07T16:31:25;6.50;79.90
64888;DHT22;51386;53.082;8.816;2022-12-07T16:33:54;6.50;79.80
64888;DHT22;51386;53.082;8.816;2022-12-07T16:36:23;6.50;81.00
64888;DHT22;51386;53.082;8.816;2022-12-07T16:39:11;6.50;80.10
64888;DHT22;51386;53.082;8.816;2022-12-07T16:41:38;6.50;80.50
64888;DHT22;51386;53.082;8.816;2022-12-07T16:44:07;6.50;81.80